Nearby METAR Reports

 

EGEO - Oban, United Kingdom
Distance from station: SSW 18mi, 30km
Updated: 13/12/2018 13:50
NOT Current
Partly cloudy
Partly cloudy
 Wind from SE
Wind: SE 12 mph , 19 km/h
Temperature: 5°C
Wind Chill: 1°C
Dew Point: -2°C
Humidity: 61%
Barometer: 1015 hPa
Clouds: Partly cloudy
Visibility: 6 miles , 10 km
Cloud details: Partly cloudy 1158 m
2018/12/13 13:50 EGEO 131350Z 14010KT 080V190 9999 SCT038 05/M02 Q1015
EGPU - Tiree, United Kingdom
Distance from station: WSW 64mi, 103km
Updated: 15/12/2018 05:20
Overcast
Overcast
 Wind from SE
Wind: SE 48 mph , 78 km/h, Gust: 62 mph , 100 km/h
Temperature: 6°C
Wind Chill: -1°C
Dew Point: 4°C
Humidity: 87%
Barometer: 1002 hPa
Clouds: Overcast
Visibility: 4 miles , 7 km
Cloud details: Overcast 335 m
2018/12/15 05:20 EGPU 150520Z AUTO 14042G54KT 7000 OVC011/// 06/04 Q1002
EGPF - Glasgow, United Kingdom
Distance from station: SSE 66mi, 107km
Updated: 15/12/2018 05:20
Mostly cloudy
Mostly cloudy
 Wind from E
Wind: E 13 mph , 20 km/h
Temperature: 2°C
Wind Chill: -3°C
Dew Point: -2°C
Humidity: 75%
Barometer: 1012 hPa
Clouds: Mostly cloudy
Visibility: 6 miles , 10 km
Cloud details: Mostly cloudy 1158 m
2018/12/15 05:20 EGPF 150520Z AUTO 08011KT 9999 BKN038 02/M02 Q1012
 
EGPE - Inverness, United Kingdom
Distance from station: NE 71mi, 114km
Updated: 15/12/2018 05:20
Clear
Clear
 Wind from S
Wind: S 9 mph , 15 km/h
Temperature: 4°C
Wind Chill: 1°C
Dew Point: -4°C
Humidity: 56%
Barometer: 1010 hPa
Summary: Clear
Visibility: greater than 7 miles , 10 km
2018/12/15 05:20 EGPE 150520Z 18008KT 140V220 CAVOK 04/M04 Q1010
EGPI - Islay/Port Ellen, United Kingdom
Distance from station: SSW 81mi, 131km
Updated: 15/12/2018 05:20
Overcast
Overcast
 Wind from SE
Wind: SE 36 mph , 57 km/h, Gust: 49 mph , 80 km/h
Temperature: 5°C
Wind Chill: -2°C
Dew Point: 4°C
Humidity: 93%
Barometer: 1004 hPa
Clouds: Overcast
Visibility: 6 miles , 10 km
Cloud details: Overcast 335 m
2018/12/15 05:20 EGPI 150520Z AUTO 13031G43KT 9999 OVC011/// 05/04 Q1004 RERA
EGPN - Dundee/Riverside, United Kingdom
Distance from station: E 86mi, 138km
Updated: 14/12/2018 20:20
NOT Current
Clear
Clear
 Wind from SSE
Wind: SSE 13 mph , 20 km/h
Temperature: 4°C
Wind Chill: -1°C
Dew Point: 0°C
Humidity: 75%
Barometer: 1020 hPa
Summary: Clear
Visibility: greater than 7 miles , 10 km
2018/12/14 20:20 EGPN 142020Z 15011KT CAVOK 04/M00 Q1020
 
EGPK - Prestwick, United Kingdom
Distance from station: SSE 88mi, 141km
Updated: 15/12/2018 04:50
Partly cloudy
Partly cloudy
 Wind from SSE
Wind: SSE 23 mph , 37 km/h, Gust: 35 mph , 56 km/h
Temperature: 4°C
Wind Chill: -2°C
Dew Point: -2°C
Humidity: 65%
Barometer: 1010 hPa
Clouds: Partly cloudy
Visibility: 6 miles , 10 km
Cloud details: Partly cloudy 792 m
2018/12/15 04:50 EGPK 150450Z 15020G30KT 9999 SCT026 04/M02 Q1010
EGPH - Edinburgh, United Kingdom
Distance from station: SE 89mi, 143km
Updated: 15/12/2018 05:20
Clear
Clear
 Wind from SE
Wind: SE 10 mph , 17 km/h
Temperature: 3°C
Wind Chill: -1°C
Dew Point: -5°C
Humidity: 56%
Barometer: 1013 hPa
Summary: Clear
Visibility: greater than 7 miles , 10 km
2018/12/15 05:20 EGPH 150520Z 14009KT 110V180 CAVOK 03/M05 Q1013
EGQK - RAF Kinloss, United Kingdom
Distance from station: NE 90mi, 144km
Updated: 15/12/2018 04:50
Mostly cloudy
Mostly cloudy
 Wind from SSE
Wind: SSE 13 mph , 20 km/h
Temperature: 4°C
Wind Chill: -1°C
Dew Point: -5°C
Humidity: 52%
Barometer: 1009 hPa
Clouds: Mostly cloudy
Visibility: 6 miles , 10 km
Cloud details: Mostly cloudy 3048 m
2018/12/15 04:50 EGQK 150450Z AUTO 15011KT 9999 BKN100/// 04/M05 Q1009
 
EGEC - Campbeltown, United Kingdom
Distance from station: S 90mi, 145km
Updated: 15/12/2018 04:50
Rain, Mostly cloudy
Rain, Mostly cloudy
 Wind from SE
Wind: SE 36 mph , 57 km/h
Temperature: 4°C
Wind Chill: -3°C
Dew Point: 3°C
Humidity: 93%
Barometer: 1007 hPa
Summary: Rain
Clouds: Mostly cloudy
Visibility: 2 miles , 4 km
Cloud details: Mostly cloudy 335 m
2018/12/15 04:50 EGEC 150450Z 13031KT 3900 RA BKN011 04/03 Q1007
EGQA - Tain Range, United Kingdom
Distance from station: NNE 91mi, 146km
Updated: 11/12/2018 12:50
NOT Current
Clear
Clear
 Wind from WNW
Wind: WNW 7 mph , 11 km/h
Summary: Clear
Visibility: greater than 7 miles , 10 km
2018/12/11 12:50 EGQA 111250Z 30006KT CAVOK 02/// Q1013 BLU
EGQL - RAF Leuchars, United Kingdom
Distance from station: ESE 93mi, 149km
Updated: 15/12/2018 04:50
Clear
Clear
 Wind from SSE
Wind: SSE 18 mph , 30 km/h
Temperature: 3°C
Wind Chill: -3°C
Dew Point: -3°C
Humidity: 65%
Barometer: 1014 hPa
Summary: Clear
Visibility: greater than 7 miles , 10 km
2018/12/15 04:50 EGQL 150450Z 16016KT CAVOK 03/M03 Q1014 BLU
 
EGPL - Benbecula, United Kingdom
Distance from station: WNW 96mi, 154km
Updated: 15/12/2018 05:20
Light rain, Overcast
Light rain, Overcast
 Wind from SSE
Wind: SSE 39 mph , 63 km/h
Temperature: 5°C
Wind Chill: -2°C
Dew Point: 4°C
Humidity: 93%
Barometer: 1001 hPa
Summary: Light rain
Clouds: Overcast
Visibility: 3 miles , 4 km
Cloud details: Overcast 152 m
2018/12/15 05:20 EGPL 150520Z AUTO 15034KT 4200 -RA OVC005/// 05/04 Q1001
EGQS - RAF Lossiemouth, United Kingdom
Distance from station: NE 99mi, 160km
Updated: 15/12/2018 04:50
Clear
Clear
 Wind from SSE
Wind: SSE 23 mph , 37 km/h
Temperature: 4°C
Wind Chill: -2°C
Dew Point: -5°C
Humidity: 52%
Barometer: 1010 hPa
Summary: Clear
Visibility: greater than 7 miles , 10 km
2018/12/15 04:50 EGQS 150450Z 16020KT CAVOK 04/M05 Q1010 BLU
EGPO - Stornoway, United Kingdom
Distance from station: NNW 111mi, 179km
Updated: 15/12/2018 05:20
Light rain, Mostly cloudy
Light rain, Mostly cloudy
 Wind from S
Wind: S 26 mph , 43 km/h
Temperature: 6°C
Wind Chill: 1°C
Dew Point: 4°C
Humidity: 87%
Barometer: 1004 hPa
Summary: Light rain
Clouds: Mostly cloudy
Visibility: 6 miles , 10 km
Cloud details: Few Clouds 183 m
Partly cloudy 396 m
Mostly cloudy 610 m
2018/12/15 05:20 EGPO 150520Z 18023KT 9999 -RA FEW006 SCT013 BKN020 06/04 Q1004
 
EGPD - Aberdeen/Dyce, United Kingdom
Distance from station: ENE 118mi, 190km
Updated: 15/12/2018 05:20
Overcast
Overcast
 Wind from S
Wind: S 23 mph , 37 km/h
Temperature: 4°C
Wind Chill: -2°C
Dew Point: -2°C
Humidity: 65%
Barometer: 1014 hPa
Clouds: Overcast
Visibility: 6 miles , 10 km
Cloud details: Mostly cloudy 945 m
Overcast 1158 m
2018/12/15 05:20 EGPD 150520Z AUTO 17020KT 9999 BKN031 OVC038 04/M02 Q1014 NOSIG
EGAE - Eglinton/Londond, United Kingdom
Distance from station: SSW 138mi, 222km
Updated: 14/12/2018 20:50
NOT Current
Light rain, Partly cloudy
Light rain, Partly cloudy
 Wind from SE
Wind: SE 25 mph , 41 km/h, Gust: 38 mph , 61 km/h
Temperature: 8°C
Wind Chill: 3°C
Dew Point: 6°C
Humidity: 87%
Barometer: 1008 hPa
Summary: Light rain
Clouds: Partly cloudy
Visibility: 6 miles , 10 km
Cloud details: Few Clouds 518 m
Partly cloudy 853 m
2018/12/14 20:50 EGAE 142050Z 14022G33KT 9999 -RA FEW017 SCT028 08/06 Q1008
EGPC - Wick, United Kingdom
Distance from station: NNE 144mi, 232km
Updated: 15/12/2018 05:20
Light rain, Partly cloudy
Light rain, Partly cloudy
 Wind from S
Wind: S 25 mph , 41 km/h, Gust: 38 mph , 61 km/h
Temperature: 5°C
Wind Chill: -1°C
Dew Point: -2°C
Humidity: 61%
Barometer: 1011 hPa
Summary: Light rain
Clouds: Partly cloudy
Visibility: 6 miles , 10 km
Cloud details: Partly cloudy 1097 m
2018/12/15 05:20 EGPC 150520Z AUTO 18022G33KT 9999 -RA SCT036/// 05/M02 Q1011

Metar display script from Saratoga-Weather.org